createdAt,value
2023-01-12T00:02:47.449Z,4.40
2023-01-12T00:05:48.280Z,4.40
2023-01-12T00:08:52.229Z,4.40
2023-01-12T00:11:53.093Z,4.80
2023-01-12T00:14:53.913Z,4.90
2023-01-12T00:17:54.704Z,4.90
2023-01-12T00:20:55.585Z,4.90
2023-01-12T00:23:56.884Z,5.00
2023-01-12T00:26:59.877Z,5.00
2023-01-12T00:30:00.940Z,5.00
2023-01-12T00:33:02.259Z,4.90
2023-01-12T00:36:12.809Z,4.90
2023-01-12T00:39:15.990Z,5.00
2023-01-12T00:42:35.613Z,5.00
2023-01-12T00:45:36.256Z,4.90
2023-01-12T00:48:36.947Z,5.00
2023-01-12T00:51:38.214Z,4.90
2023-01-12T00:54:39.492Z,4.90
2023-01-12T00:57:40.554Z,4.80
2023-01-12T01:00:41.412Z,4.80
2023-01-12T01:03:42.129Z,5.00
2023-01-12T01:06:43.499Z,5.00
2023-01-12T01:09:44.553Z,5.00
2023-01-12T01:12:45.588Z,5.00
2023-01-12T01:15:46.461Z,5.10
2023-01-12T01:18:47.946Z,5.10
2023-01-12T01:21:48.915Z,5.00
2023-01-12T01:24:50.200Z,4.90
2023-01-12T01:27:51.327Z,4.90
2023-01-12T01:30:52.105Z,5.00
2023-01-12T01:33:53.365Z,4.70
2023-01-12T01:36:54.577Z,4.80
2023-01-12T01:39:56.376Z,4.80
2023-01-12T01:42:58.024Z,4.90
2023-01-12T01:46:14.256Z,5.00
2023-01-12T01:49:40.284Z,5.00
2023-01-12T01:52:48.934Z,5.10
2023-01-12T01:56:05.901Z,5.00
2023-01-12T01:59:23.287Z,5.00
2023-01-12T02:02:27.126Z,4.90
2023-01-12T02:05:29.135Z,4.90
2023-01-12T02:08:56.395Z,4.80
2023-01-12T02:12:16.894Z,4.80
2023-01-12T02:15:36.667Z,4.90
2023-01-12T02:19:13.122Z,5.10
2023-01-12T02:22:55.572Z,5.30
2023-01-12T02:26:52.872Z,5.40
2023-01-12T02:29:59.328Z,5.40
2023-01-12T02:33:52.983Z,5.30
2023-01-12T02:37:11.129Z,5.20
2023-01-12T02:40:37.137Z,5.20
2023-01-12T02:43:40.302Z,5.20
2023-01-12T02:46:45.427Z,5.10
2023-01-12T02:49:54.004Z,5.10
2023-01-12T02:53:03.262Z,5.00
2023-01-12T02:56:08.114Z,5.10
2023-01-12T02:59:18.761Z,5.20
2023-01-12T03:02:24.001Z,5.30
2023-01-12T03:05:24.907Z,5.30
2023-01-12T03:08:30.131Z,5.30
2023-01-12T03:11:31.404Z,5.30
2023-01-12T03:14:38.469Z,5.20
2023-01-12T03:17:49.454Z,5.20
2023-01-12T03:21:02.051Z,5.10
2023-01-12T03:24:12.596Z,5.20
2023-01-12T03:27:22.863Z,5.20
2023-01-12T03:30:37.759Z,5.20
2023-01-12T03:33:41.969Z,5.20
2023-01-12T03:37:15.511Z,5.30
2023-01-12T03:40:28.382Z,5.30
2023-01-12T03:43:44.200Z,5.30
2023-01-12T03:47:03.345Z,5.20
2023-01-12T03:50:14.313Z,5.30
2023-01-12T03:53:20.362Z,5.20
2023-01-12T03:56:26.510Z,5.20
2023-01-12T03:59:28.473Z,5.10
2023-01-12T04:02:29.397Z,5.20
2023-01-12T04:05:30.316Z,5.10
2023-01-12T04:08:31.812Z,5.00
2023-01-12T04:11:51.806Z,5.00
2023-01-12T04:14:52.522Z,5.00
2023-01-12T04:17:53.485Z,4.90
2023-01-12T04:20:54.192Z,4.90
2023-01-12T04:23:55.061Z,5.00
2023-01-12T04:26:55.935Z,5.00
2023-01-12T04:29:56.811Z,4.90
2023-01-12T04:32:59.803Z,4.90
2023-01-12T04:36:00.985Z,5.00
2023-01-12T04:39:02.392Z,5.00
2023-01-12T04:42:03.334Z,5.00
2023-01-12T04:45:04.787Z,5.00
2023-01-12T04:48:10.531Z,5.10
2023-01-12T04:51:12.316Z,5.00
2023-01-12T04:54:13.221Z,5.00
2023-01-12T04:57:13.910Z,5.00
2023-01-12T05:00:15.224Z,5.00
2023-01-12T05:03:16.927Z,5.00
2023-01-12T05:06:17.719Z,5.00
2023-01-12T05:09:36.956Z,4.90
2023-01-12T05:12:37.758Z,5.00
2023-01-12T05:15:38.937Z,5.10
2023-01-12T05:18:39.807Z,5.20
2023-01-12T05:21:40.403Z,5.30
2023-01-12T05:24:41.266Z,5.40
2023-01-12T05:27:41.925Z,5.40
2023-01-12T05:30:43.347Z,5.30
2023-01-12T05:33:44.445Z,5.30
2023-01-12T05:36:48.502Z,5.30
2023-01-12T05:39:49.464Z,5.20
2023-01-12T05:43:11.605Z,5.30
2023-01-12T05:46:12.848Z,5.30
2023-01-12T05:49:13.969Z,5.20
2023-01-12T05:52:15.153Z,5.20
2023-01-12T05:55:16.527Z,5.10
2023-01-12T05:58:17.404Z,5.10
2023-01-12T06:01:20.536Z,5.10
2023-01-12T06:04:21.700Z,5.20
2023-01-12T06:07:22.828Z,5.20
2023-01-12T06:10:23.869Z,5.30
2023-01-12T06:13:43.406Z,5.20
2023-01-12T06:16:44.725Z,5.30
2023-01-12T06:19:46.001Z,5.40
2023-01-12T06:22:47.254Z,5.30
2023-01-12T06:25:48.064Z,5.30
2023-01-12T06:28:49.361Z,5.20
2023-01-12T06:31:50.009Z,5.20
2023-01-12T06:34:50.992Z,5.40
2023-01-12T06:37:57.388Z,5.40
2023-01-12T06:41:30.034Z,5.40
2023-01-12T06:44:30.945Z,5.40
2023-01-12T06:47:31.669Z,5.60
2023-01-12T06:50:33.933Z,5.70
2023-01-12T06:53:35.165Z,5.80
2023-01-12T06:56:35.868Z,5.80
2023-01-12T06:59:38.918Z,5.70
2023-01-12T07:02:40.247Z,5.90
2023-01-12T07:05:41.213Z,6.00
2023-01-12T07:08:42.987Z,5.90
2023-01-12T07:11:43.865Z,5.90
2023-01-12T07:14:44.723Z,5.80
2023-01-12T07:17:45.568Z,5.80
2023-01-12T07:20:47.431Z,5.80
2023-01-12T07:23:48.330Z,5.90
2023-01-12T07:26:50.385Z,5.90
2023-01-12T07:29:51.401Z,5.90
2023-01-12T07:32:53.309Z,5.90
2023-01-12T07:35:58.822Z,6.00
2023-01-12T07:39:00.705Z,5.90
2023-01-12T07:42:20.834Z,5.90
2023-01-12T07:45:21.946Z,5.90
2023-01-12T07:48:23.491Z,6.00
2023-01-12T07:51:24.705Z,6.00
2023-01-12T07:54:25.558Z,6.20
2023-01-12T07:57:26.412Z,6.30
2023-01-12T08:00:28.322Z,6.20
2023-01-12T08:03:29.432Z,6.30
2023-01-12T08:06:31.527Z,6.30
2023-01-12T08:09:32.574Z,6.40
2023-01-12T08:12:33.304Z,6.40
2023-01-12T08:15:43.329Z,6.40
2023-01-12T08:19:19.757Z,6.40
2023-01-12T08:22:31.831Z,6.50
2023-01-12T08:25:44.653Z,6.50
2023-01-12T08:28:57.486Z,6.50
2023-01-12T08:35:32.746Z,6.60
2023-01-12T08:38:33.574Z,6.70
2023-01-12T08:41:37.619Z,6.70
2023-01-12T08:44:38.951Z,6.70
2023-01-12T08:47:44.439Z,6.70
2023-01-12T08:50:45.396Z,6.80
2023-01-12T08:53:47.529Z,6.70
2023-01-12T08:56:49.659Z,6.80
2023-01-12T08:59:50.390Z,6.80
2023-01-12T09:02:51.027Z,6.80
2023-01-12T09:05:51.728Z,6.80
2023-01-12T09:08:59.124Z,6.90
2023-01-12T09:12:00.644Z,7.00
2023-01-12T09:15:05.353Z,7.00
2023-01-12T09:18:06.394Z,7.00
2023-01-12T09:21:14.631Z,7.10
2023-01-12T09:24:16.175Z,7.10
2023-01-12T09:27:17.246Z,7.10
2023-01-12T09:30:18.579Z,7.10
2023-01-12T09:33:19.733Z,7.10
2023-01-12T09:36:31.366Z,7.10
2023-01-12T09:39:31.987Z,7.20
2023-01-12T09:42:51.108Z,7.30
2023-01-12T09:46:10.248Z,7.30
2023-01-12T09:49:12.753Z,7.30
2023-01-12T09:52:22.231Z,7.40
2023-01-12T09:55:27.685Z,7.40
2023-01-12T09:58:58.261Z,7.40
2023-01-12T10:01:59.442Z,7.40
2023-01-12T10:05:08.153Z,7.50
2023-01-12T10:08:41.297Z,7.50
2023-01-12T10:12:14.656Z,7.50
2023-01-12T10:15:31.317Z,7.60
2023-01-12T10:18:47.479Z,7.60
2023-01-12T10:21:52.689Z,7.60
2023-01-12T10:24:55.500Z,7.70
2023-01-12T10:28:00.247Z,7.70
2023-01-12T10:31:02.071Z,7.70
2023-01-12T10:34:12.123Z,7.80
2023-01-12T10:37:12.996Z,7.70
2023-01-12T10:40:31.192Z,7.70
2023-01-12T10:43:34.241Z,7.70
2023-01-12T10:46:36.155Z,7.60
2023-01-12T10:49:38.491Z,7.50
2023-01-12T10:52:41.308Z,7.50
2023-01-12T10:55:44.605Z,7.50
2023-01-12T10:58:54.415Z,7.40
2023-01-12T11:02:13.911Z,7.40
2023-01-12T11:05:31.809Z,7.40
2023-01-12T11:08:32.803Z,7.40
2023-01-12T11:11:34.061Z,7.40
2023-01-12T11:14:38.277Z,7.30
2023-01-12T11:17:49.754Z,7.30
2023-01-12T11:21:10.588Z,7.30
2023-01-12T11:24:49.323Z,7.40
2023-01-12T11:28:34.496Z,7.50
2023-01-12T11:31:42.406Z,7.60
2023-01-12T11:35:04.940Z,7.70
2023-01-12T11:38:19.360Z,7.70
2023-01-12T11:41:30.066Z,7.70
2023-01-12T11:45:03.166Z,7.80
2023-01-12T11:48:22.212Z,7.80
2023-01-12T11:51:23.794Z,7.80
2023-01-12T11:54:31.148Z,7.80
2023-01-12T11:57:58.516Z,7.80
2023-01-12T12:01:41.109Z,7.90
2023-01-12T12:05:26.972Z,8.00
2023-01-12T12:09:05.199Z,8.00
2023-01-12T12:12:40.116Z,8.00
2023-01-12T12:15:46.649Z,8.00
2023-01-12T12:19:27.407Z,8.00
2023-01-12T12:22:54.181Z,8.00
2023-01-12T12:26:43.590Z,8.20
2023-01-12T12:30:37.337Z,8.10
2023-01-12T12:34:18.905Z,8.10
2023-01-12T12:38:13.127Z,8.20
2023-01-12T12:42:15.536Z,8.20
2023-01-12T12:45:55.032Z,8.20
2023-01-12T12:49:12.759Z,8.10
2023-01-12T12:52:14.575Z,8.10
2023-01-12T12:55:15.837Z,8.10
2023-01-12T12:58:22.822Z,8.20
2023-01-12T13:01:23.522Z,8.20
2023-01-12T13:04:43.008Z,8.20
2023-01-12T13:07:52.455Z,8.20
2023-01-12T13:10:58.981Z,8.30
2023-01-12T13:14:04.645Z,8.30
2023-01-12T13:17:21.209Z,8.40
2023-01-12T13:20:54.377Z,8.50
2023-01-12T13:24:16.794Z,8.60
2023-01-12T13:28:03.308Z,8.60
2023-01-12T13:31:30.361Z,8.70
2023-01-12T13:34:37.329Z,8.80
2023-01-12T13:37:52.037Z,8.80
2023-01-12T13:41:01.325Z,8.80
2023-01-12T13:44:03.319Z,8.80
2023-01-12T13:47:14.772Z,8.80
2023-01-12T13:50:26.471Z,9.00
2023-01-12T13:53:31.605Z,9.00
2023-01-12T13:56:33.011Z,9.10
2023-01-12T13:59:35.099Z,9.10
2023-01-12T14:02:39.392Z,9.50
2023-01-12T14:06:05.643Z,9.70
2023-01-12T14:09:41.933Z,9.50
2023-01-12T14:13:01.517Z,9.40
2023-01-12T14:16:33.695Z,9.40
2023-01-12T14:19:34.984Z,9.20
2023-01-12T14:22:35.847Z,9.10
2023-01-12T14:25:36.828Z,9.20
2023-01-12T14:28:50.825Z,9.00
2023-01-12T14:31:54.223Z,8.80
2023-01-12T14:34:55.666Z,8.70
2023-01-12T14:38:01.063Z,8.60
2023-01-12T14:41:07.209Z,8.50
2023-01-12T14:44:37.840Z,8.40
2023-01-12T14:47:39.301Z,8.40
2023-01-12T14:50:40.287Z,8.40
2023-01-12T14:53:45.041Z,8.30
2023-01-12T14:56:52.341Z,8.20
2023-01-12T14:59:54.292Z,8.20
2023-01-12T15:02:59.195Z,8.10
2023-01-12T15:06:00.542Z,8.20
2023-01-12T15:09:01.614Z,8.10
2023-01-12T15:12:30.807Z,8.20
2023-01-12T15:15:50.616Z,8.20
2023-01-12T15:19:10.326Z,8.10
2023-01-12T15:22:29.473Z,8.10
2023-01-12T15:25:36.028Z,8.00
2023-01-12T15:28:37.305Z,7.90
2023-01-12T15:31:39.287Z,7.90
2023-01-12T15:34:40.224Z,7.90
2023-01-12T15:37:41.268Z,7.90
2023-01-12T15:40:43.032Z,7.90
2023-01-12T15:43:43.987Z,7.80
2023-01-12T15:46:46.022Z,7.80
2023-01-12T15:49:49.817Z,7.60
2023-01-12T15:52:51.363Z,7.60
2023-01-12T15:55:52.477Z,7.50
2023-01-12T15:58:53.744Z,7.50
2023-01-12T16:01:54.720Z,7.40
2023-01-12T16:04:55.861Z,7.30
2023-01-12T16:07:57.334Z,7.20
2023-01-12T16:11:10.114Z,7.30
2023-01-12T16:14:12.280Z,7.40
2023-01-12T16:17:12.968Z,7.40
2023-01-12T16:20:16.825Z,7.30
2023-01-12T16:23:17.871Z,7.40
2023-01-12T16:26:18.449Z,7.40
2023-01-12T16:29:19.511Z,7.40
2023-01-12T16:32:27.546Z,7.40
2023-01-12T16:35:28.429Z,7.40
2023-01-12T16:38:29.469Z,7.30
2023-01-12T16:41:30.530Z,7.30
2023-01-12T16:44:37.453Z,7.40
2023-01-12T16:47:38.421Z,7.40
2023-01-12T16:50:43.695Z,7.40
2023-01-12T16:53:46.652Z,7.40
2023-01-12T16:56:47.892Z,7.50
2023-01-12T16:59:49.822Z,7.50
2023-01-12T17:02:52.720Z,7.60
2023-01-12T17:05:53.764Z,7.70
2023-01-12T17:08:56.720Z,7.70
2023-01-12T17:11:59.828Z,7.60
2023-01-12T17:15:00.840Z,7.70
2023-01-12T17:18:02.576Z,7.70
2023-01-12T17:21:12.261Z,7.70
2023-01-12T17:24:16.366Z,7.80
2023-01-12T17:27:17.549Z,7.80
2023-01-12T17:30:20.375Z,7.80
2023-01-12T17:33:21.141Z,7.70
2023-01-12T17:36:23.954Z,7.70
2023-01-12T17:39:24.707Z,7.70
2023-01-12T17:42:43.967Z,7.70
2023-01-12T17:45:45.130Z,7.50
2023-01-12T17:48:47.515Z,7.40
2023-01-12T17:51:50.461Z,7.30
2023-01-12T17:54:51.418Z,7.20
2023-01-12T17:57:52.498Z,7.10
2023-01-12T18:00:53.311Z,7.10
2023-01-12T18:03:54.933Z,7.00
2023-01-12T18:06:56.134Z,7.00
2023-01-12T18:09:56.889Z,6.90
2023-01-12T18:12:58.296Z,7.00
2023-01-12T18:16:00.520Z,6.90
2023-01-12T18:19:10.334Z,6.90
2023-01-12T18:22:11.586Z,6.90
2023-01-12T18:25:12.794Z,7.10
2023-01-12T18:28:14.098Z,7.10
2023-01-12T18:31:20.387Z,7.10
2023-01-12T18:34:21.372Z,7.10
2023-01-12T18:37:22.292Z,7.00
2023-01-12T18:40:23.440Z,7.00
2023-01-12T18:43:25.164Z,6.90
2023-01-12T18:46:44.519Z,6.90
2023-01-12T18:49:48.065Z,6.90
2023-01-12T18:53:07.508Z,6.80
2023-01-12T18:56:08.281Z,6.80
2023-01-12T18:59:09.424Z,6.80
2023-01-12T19:02:15.149Z,6.90
2023-01-12T19:05:21.951Z,6.90
2023-01-12T19:08:28.528Z,7.00
2023-01-12T19:11:29.371Z,7.00
2023-01-12T19:14:48.293Z,7.10
2023-01-12T19:17:49.471Z,7.10
2023-01-12T19:20:50.146Z,7.00
2023-01-12T19:24:09.318Z,6.90
2023-01-12T19:27:32.343Z,6.90
2023-01-12T19:30:35.497Z,6.80
2023-01-12T19:33:37.159Z,6.80
2023-01-12T19:36:37.979Z,6.90
2023-01-12T19:39:49.373Z,7.00
2023-01-12T19:43:12.100Z,7.10
2023-01-12T19:46:13.336Z,7.10
2023-01-12T19:49:16.965Z,7.20
2023-01-12T19:52:17.711Z,7.30
2023-01-12T19:55:18.606Z,7.10
2023-01-12T19:58:22.322Z,7.10
2023-01-12T20:01:24.188Z,7.10
2023-01-12T20:04:25.709Z,7.10
2023-01-12T20:07:27.053Z,7.00
2023-01-12T20:10:27.845Z,7.00
2023-01-12T20:13:29.007Z,7.00
2023-01-12T20:16:30.295Z,7.10
2023-01-12T20:19:32.951Z,7.10
2023-01-12T20:22:35.908Z,7.10
2023-01-12T20:25:36.837Z,7.20
2023-01-12T20:28:37.615Z,7.30
2023-01-12T20:31:38.439Z,7.30
2023-01-12T20:34:39.614Z,7.30
2023-01-12T20:37:41.218Z,7.30
2023-01-12T20:40:43.248Z,7.10
2023-01-12T20:43:44.539Z,7.00
2023-01-12T20:46:45.612Z,7.00
2023-01-12T20:49:47.368Z,7.10
2023-01-12T20:52:49.495Z,7.00
2023-01-12T20:55:51.734Z,7.00
2023-01-12T20:58:52.768Z,6.80
2023-01-12T21:01:53.818Z,6.70
2023-01-12T21:04:54.946Z,6.70
2023-01-12T21:08:07.486Z,6.80
2023-01-12T21:11:10.858Z,6.70
2023-01-12T21:14:11.838Z,6.70
2023-01-12T21:17:12.535Z,6.80
2023-01-12T21:20:14.802Z,6.70
2023-01-12T21:23:15.845Z,6.60
2023-01-12T21:26:16.748Z,6.50
2023-01-12T21:29:17.871Z,6.40
2023-01-12T21:32:19.245Z,6.40
2023-01-12T21:35:20.284Z,6.50
2023-01-12T21:38:21.249Z,6.70
2023-01-12T21:41:22.640Z,6.70
2023-01-12T21:44:23.755Z,6.70
2023-01-12T21:47:24.582Z,6.60
2023-01-12T21:50:25.950Z,6.70
2023-01-12T21:53:26.800Z,6.70
2023-01-12T21:56:27.528Z,6.60
2023-01-12T21:59:28.584Z,6.60
2023-01-12T22:02:31.223Z,6.60
2023-01-12T22:05:34.040Z,6.60
2023-01-12T22:08:37.940Z,6.70
2023-01-12T22:11:38.944Z,6.60
2023-01-12T22:14:39.853Z,6.40
2023-01-12T22:17:41.977Z,6.40
2023-01-12T22:20:43.519Z,6.50
2023-01-12T22:23:45.046Z,6.50
2023-01-12T22:26:46.123Z,6.50
2023-01-12T22:29:46.867Z,6.50
2023-01-12T22:32:48.756Z,6.50
2023-01-12T22:35:49.447Z,6.50
2023-01-12T22:38:51.106Z,6.40
2023-01-12T22:41:52.910Z,6.30
2023-01-12T22:44:56.592Z,6.40
2023-01-12T22:47:57.795Z,6.50
2023-01-12T22:51:00.552Z,6.60
2023-01-12T22:54:01.403Z,6.90
2023-01-12T22:57:02.229Z,7.20
2023-01-12T23:00:04.032Z,7.20
2023-01-12T23:03:11.971Z,7.10
2023-01-12T23:06:16.634Z,7.20
2023-01-12T23:09:17.249Z,7.00
2023-01-12T23:12:18.298Z,7.00
2023-01-12T23:15:19.440Z,6.90
2023-01-12T23:18:29.492Z,6.90
2023-01-12T23:21:30.619Z,6.90
2023-01-12T23:24:31.218Z,6.70
2023-01-12T23:27:33.765Z,6.70
2023-01-12T23:30:34.978Z,6.70
2023-01-12T23:33:37.220Z,6.70
2023-01-12T23:36:38.290Z,6.70
2023-01-12T23:39:39.533Z,6.60
2023-01-12T23:42:40.742Z,6.50
2023-01-12T23:45:41.604Z,6.40
2023-01-12T23:48:42.557Z,6.60
2023-01-12T23:51:43.571Z,6.50
2023-01-12T23:54:44.329Z,6.70
2023-01-12T23:57:48.534Z,6.70
